createdAt,value
2018-11-14T00:00:25.974Z,2.97
2018-11-14T00:02:53.668Z,3.63
2018-11-14T00:05:21.262Z,3.30
2018-11-14T00:07:48.922Z,3.23
2018-11-14T00:10:16.905Z,3.50
2018-11-14T00:12:44.139Z,3.50
2018-11-14T00:15:29.399Z,4.17
2018-11-14T00:17:56.930Z,4.57
2018-11-14T00:20:24.622Z,4.67
2018-11-14T00:22:52.301Z,4.53
2018-11-14T00:25:19.973Z,3.90
2018-11-14T00:27:47.582Z,4.10
2018-11-14T00:30:18.221Z,4.57
2018-11-14T00:32:45.697Z,4.23
2018-11-14T00:35:13.574Z,4.23
2018-11-14T00:37:41.423Z,4.30
2018-11-14T00:40:09.925Z,4.03
2018-11-14T00:42:37.574Z,3.97
2018-11-14T00:45:06.042Z,3.77
2018-11-14T00:47:33.704Z,3.90
2018-11-14T00:50:01.384Z,4.37
2018-11-14T00:52:28.910Z,4.13
2018-11-14T00:54:56.525Z,4.07
2018-11-14T00:57:24.138Z,3.93
2018-11-14T00:59:51.890Z,4.07
2018-11-14T01:02:19.377Z,3.93
2018-11-14T01:04:47.006Z,4.07
2018-11-14T01:07:14.623Z,3.83
2018-11-14T01:09:42.264Z,4.30
2018-11-14T01:12:10.143Z,3.90
2018-11-14T01:14:37.346Z,4.37
2018-11-14T01:17:05.349Z,3.80
2018-11-14T01:19:32.947Z,4.47
2018-11-14T01:22:00.449Z,4.30
2018-11-14T01:24:27.949Z,4.40
2018-11-14T01:26:55.578Z,4.13
2018-11-14T01:29:23.423Z,3.67
2018-11-14T01:31:51.142Z,4.77
2018-11-14T01:34:18.750Z,4.40
2018-11-14T01:36:46.345Z,4.40
2018-11-14T01:39:13.982Z,4.30
2018-11-14T01:41:41.674Z,4.17
2018-11-14T01:44:09.226Z,3.90
2018-11-14T01:46:37.457Z,4.00
2018-11-14T01:49:05.552Z,4.27
2018-11-14T01:51:33.253Z,4.57
2018-11-14T01:54:00.915Z,4.07
2018-11-14T01:56:28.567Z,4.40
2018-11-14T01:58:56.167Z,3.73
2018-11-14T02:01:23.722Z,3.83
2018-11-14T02:03:51.363Z,4.53
2018-11-14T02:06:18.955Z,4.30
2018-11-14T02:08:46.541Z,3.87
2018-11-14T02:11:14.055Z,4.33
2018-11-14T02:13:41.598Z,4.50
2018-11-14T02:16:09.102Z,3.97
2018-11-14T02:18:36.691Z,4.03
2018-11-14T02:21:04.332Z,4.10
2018-11-14T02:23:31.882Z,4.10
2018-11-14T02:25:59.480Z,4.00
2018-11-14T02:28:26.994Z,4.13
2018-11-14T02:30:54.578Z,3.77
2018-11-14T02:33:22.171Z,3.80
2018-11-14T02:35:49.680Z,3.40
2018-11-14T02:38:17.209Z,4.10
2018-11-14T02:40:44.730Z,3.73
2018-11-14T02:43:12.273Z,3.83
2018-11-14T02:45:39.853Z,4.10
2018-11-14T02:48:07.375Z,4.17
2018-11-14T02:50:34.898Z,4.20
2018-11-14T02:53:02.409Z,3.50
2018-11-14T02:55:30.028Z,3.80
2018-11-14T02:57:57.597Z,4.60
2018-11-14T03:00:25.124Z,4.47
2018-11-14T03:02:52.734Z,5.10
2018-11-14T03:05:20.338Z,5.20
2018-11-14T03:07:47.943Z,5.23
2018-11-14T03:10:17.125Z,4.80
2018-11-14T03:12:44.747Z,4.20
2018-11-14T03:15:13.712Z,5.10
2018-11-14T03:17:41.318Z,5.03
2018-11-14T03:20:11.201Z,3.97
2018-11-14T03:22:38.946Z,4.30
2018-11-14T03:25:07.286Z,3.70
2018-11-14T03:27:34.909Z,4.17
2018-11-14T03:30:02.586Z,4.40
2018-11-14T03:32:30.130Z,4.07
2018-11-14T03:34:57.722Z,4.23
2018-11-14T03:37:25.222Z,4.10
2018-11-14T03:39:52.859Z,4.37
2018-11-14T03:42:20.366Z,4.20
2018-11-14T03:44:47.859Z,3.73
2018-11-14T03:47:15.467Z,3.70
2018-11-14T03:49:43.057Z,3.93
2018-11-14T03:52:10.569Z,4.00
2018-11-14T03:54:38.090Z,3.60
2018-11-14T03:57:05.698Z,4.10
2018-11-14T03:59:33.207Z,3.43
2018-11-14T04:02:00.710Z,3.63
2018-11-14T04:04:28.222Z,4.07
2018-11-14T04:06:55.714Z,3.70
2018-11-14T04:09:23.303Z,4.07
2018-11-14T04:11:50.860Z,3.60
2018-11-14T04:14:18.481Z,4.17
2018-11-14T04:16:46.070Z,4.60
2018-11-14T04:19:13.598Z,4.43
2018-11-14T04:21:41.126Z,4.13
2018-11-14T04:24:08.717Z,4.03
2018-11-14T04:26:36.225Z,3.60
2018-11-14T04:29:03.919Z,3.73
2018-11-14T04:31:31.551Z,4.17
2018-11-14T04:33:59.157Z,3.10
2018-11-14T04:36:26.755Z,3.50
2018-11-14T04:38:54.274Z,2.93
2018-11-14T04:41:21.774Z,3.37
2018-11-14T04:43:49.277Z,3.30
2018-11-14T04:46:16.900Z,3.80
2018-11-14T04:48:44.551Z,3.13
2018-11-14T04:51:12.163Z,3.60
2018-11-14T04:53:39.713Z,3.60
2018-11-14T04:56:07.349Z,3.50
2018-11-14T04:58:34.978Z,3.40
2018-11-14T05:01:02.514Z,2.97
2018-11-14T05:03:30.054Z,3.60
2018-11-14T05:05:57.574Z,3.77
2018-11-14T05:08:25.187Z,3.53
2018-11-14T05:10:52.738Z,3.30
2018-11-14T05:13:20.283Z,3.77
2018-11-14T05:15:47.839Z,3.50
2018-11-14T05:18:15.351Z,3.00
2018-11-14T05:20:42.854Z,3.20
2018-11-14T05:23:10.354Z,3.70
2018-11-14T05:25:37.894Z,3.23
2018-11-14T05:28:05.419Z,3.43
2018-11-14T05:30:33.039Z,3.67
2018-11-14T05:33:00.582Z,3.47
2018-11-14T05:35:28.096Z,3.40
2018-11-14T05:37:55.738Z,3.20
2018-11-14T05:40:23.361Z,3.20
2018-11-14T05:42:51.641Z,3.30
2018-11-14T05:45:21.517Z,3.87
2018-11-14T05:47:49.110Z,4.00
2018-11-14T05:50:19.547Z,3.87
2018-11-14T05:52:47.120Z,3.53
2018-11-14T05:55:15.082Z,4.53
2018-11-14T05:57:42.573Z,3.57
2018-11-14T06:00:15.753Z,3.80
2018-11-14T06:02:43.842Z,4.00
2018-11-14T06:05:11.482Z,3.97
2018-11-14T06:07:39.139Z,3.83
2018-11-14T06:10:08.106Z,3.93
2018-11-14T06:12:35.626Z,4.13
2018-11-14T06:15:03.451Z,3.97
2018-11-14T06:17:30.993Z,3.60
2018-11-14T06:19:58.677Z,3.63
2018-11-14T06:22:26.369Z,4.20
2018-11-14T06:24:54.028Z,3.50
2018-11-14T06:27:21.549Z,4.07
2018-11-14T06:29:49.212Z,3.93
2018-11-14T06:32:17.110Z,3.97
2018-11-14T06:34:44.743Z,4.03
2018-11-14T06:37:12.283Z,4.13
2018-11-14T06:39:39.790Z,4.33
2018-11-14T06:42:07.328Z,3.83
2018-11-14T06:44:35.213Z,4.07
2018-11-14T06:47:02.741Z,3.73
2018-11-14T06:49:30.296Z,4.03
2018-11-14T06:51:57.809Z,3.90
2018-11-14T06:54:25.325Z,4.10
2018-11-14T06:56:52.845Z,4.13
2018-11-14T06:59:20.440Z,4.23
2018-11-14T07:04:22.085Z,3.73
2018-11-14T07:06:49.627Z,3.53
2018-11-14T07:09:17.182Z,3.77
2018-11-14T07:11:44.697Z,3.70
2018-11-14T07:14:12.190Z,3.80
2018-11-14T07:16:39.811Z,3.53
2018-11-14T07:19:07.301Z,3.63
2018-11-14T07:21:34.826Z,3.50
2018-11-14T07:24:02.346Z,3.80
2018-11-14T07:26:29.849Z,3.50
2018-11-14T07:28:57.451Z,3.40
2018-11-14T07:31:25.062Z,4.30
2018-11-14T07:33:52.595Z,4.43
2018-11-14T07:36:20.130Z,3.73
2018-11-14T07:38:48.614Z,3.60
2018-11-14T07:41:21.119Z,3.27
2018-11-14T07:43:48.726Z,3.40
2018-11-14T07:46:16.347Z,3.47
2018-11-14T07:48:44.895Z,3.00
2018-11-14T07:51:12.461Z,28.13
2018-11-14T07:53:39.977Z,4.23
2018-11-14T07:56:07.510Z,3.73
2018-11-14T07:58:35.033Z,3.80
2018-11-14T08:01:02.561Z,2.40
2018-11-14T08:03:30.092Z,2.37
2018-11-14T08:05:58.381Z,2.13
2018-11-14T08:08:25.982Z,2.30
2018-11-14T08:10:53.581Z,2.17
2018-11-14T08:13:23.310Z,1.90
2018-11-14T08:15:52.154Z,2.00
2018-11-14T08:18:19.693Z,2.00
2018-11-14T08:20:47.373Z,1.70
2018-11-14T08:23:14.911Z,1.77
2018-11-14T08:25:42.470Z,1.90
2018-11-14T08:28:10.049Z,1.40
2018-11-14T08:30:37.677Z,1.70
2018-11-14T08:33:05.579Z,1.63
2018-11-14T08:35:33.110Z,1.70
2018-11-14T08:38:00.686Z,1.60
2018-11-14T08:40:28.310Z,1.90
2018-11-14T08:42:55.810Z,2.43
2018-11-14T08:45:23.422Z,3.00
2018-11-14T08:47:50.933Z,2.60
2018-11-14T08:50:18.584Z,2.07
2018-11-14T08:52:45.978Z,2.07
2018-11-14T08:55:14.279Z,2.70
2018-11-14T08:57:43.090Z,2.50
2018-11-14T09:00:14.115Z,2.30
2018-11-14T09:02:41.986Z,2.00
2018-11-14T09:05:09.811Z,2.07
2018-11-14T09:07:37.735Z,1.63
2018-11-14T09:10:06.509Z,1.73
2018-11-14T09:12:34.145Z,1.50
2018-11-14T09:15:01.681Z,1.50
2018-11-14T09:17:29.198Z,1.57
2018-11-14T09:19:56.713Z,1.80
2018-11-14T09:22:24.338Z,1.63
2018-11-14T09:24:51.990Z,1.85
2018-11-14T09:27:19.724Z,2.57
2018-11-14T09:29:47.302Z,2.43
2018-11-14T09:32:14.846Z,2.62
2018-11-14T09:34:42.439Z,2.85
2018-11-14T09:37:09.972Z,2.00
2018-11-14T09:39:37.471Z,1.80
2018-11-14T09:42:05.029Z,2.37
2018-11-14T09:44:32.820Z,2.30
2018-11-14T09:47:00.397Z,1.97
2018-11-14T09:49:27.980Z,1.40
2018-11-14T09:51:55.433Z,1.50
2018-11-14T09:54:23.010Z,1.43
2018-11-14T09:56:50.863Z,1.40
2018-11-14T09:59:18.370Z,1.43
2018-11-14T10:01:45.985Z,2.20
2018-11-14T10:04:13.889Z,1.98
2018-11-14T10:06:41.984Z,1.80
2018-11-14T10:09:11.003Z,2.00
2018-11-14T10:11:38.510Z,1.40
2018-11-14T10:14:06.331Z,1.70
2018-11-14T10:16:33.919Z,2.47
2018-11-14T10:19:01.426Z,2.30
2018-11-14T10:21:29.081Z,1.70
2018-11-14T10:23:56.570Z,2.30
2018-11-14T10:26:24.057Z,2.10
2018-11-14T10:28:51.703Z,2.53
2018-11-14T10:31:19.316Z,2.70
2018-11-14T10:33:46.914Z,2.47
2018-11-14T10:36:15.411Z,2.60
2018-11-14T10:38:43.007Z,2.90
2018-11-14T10:41:10.569Z,2.70
2018-11-14T10:43:38.122Z,2.73
2018-11-14T10:46:05.641Z,3.33
2018-11-14T10:48:33.304Z,2.47
2018-11-14T10:51:00.935Z,2.40
2018-11-14T10:53:28.417Z,2.37
2018-11-14T10:55:55.929Z,2.70
2018-11-14T10:58:23.681Z,2.87
2018-11-14T11:00:56.789Z,2.83
2018-11-14T11:03:29.885Z,2.73
2018-11-14T11:06:05.098Z,2.50
2018-11-14T11:08:38.187Z,2.90
2018-11-14T11:11:11.438Z,2.90
2018-11-14T11:14:12.376Z,3.00
2018-11-14T11:16:46.403Z,2.90
2018-11-14T11:19:14.934Z,2.37
2018-11-14T11:21:42.755Z,2.70
2018-11-14T11:24:10.687Z,3.13
2018-11-14T11:26:38.186Z,2.67
2018-11-14T11:29:06.890Z,2.63
2018-11-14T11:31:34.522Z,2.60
2018-11-14T11:34:02.036Z,2.50
2018-11-14T11:36:29.507Z,2.67
2018-11-14T11:38:57.111Z,2.67
2018-11-14T11:41:24.735Z,3.10
2018-11-14T11:43:52.374Z,3.40
2018-11-14T11:46:19.886Z,2.90
2018-11-14T11:48:47.545Z,3.07
2018-11-14T11:51:15.095Z,3.00
2018-11-14T11:53:42.558Z,3.23
2018-11-14T11:56:10.163Z,3.33
2018-11-14T11:58:37.658Z,3.00
2018-11-14T12:01:05.314Z,3.20
2018-11-14T12:03:33.012Z,3.37
2018-11-14T12:06:00.678Z,3.27
2018-11-14T12:08:28.349Z,3.57
2018-11-14T12:10:55.971Z,3.37
2018-11-14T12:13:23.529Z,3.13
2018-11-14T12:15:51.138Z,3.00
2018-11-14T12:20:52.721Z,2.60
2018-11-14T12:23:20.251Z,2.60
2018-11-14T12:25:47.873Z,2.33
2018-11-14T12:28:15.386Z,2.13
2018-11-14T12:30:43.043Z,1.80
2018-11-14T12:33:10.570Z,2.47
2018-11-14T12:35:38.148Z,2.40
2018-11-14T12:38:05.645Z,2.20
2018-11-14T12:40:33.153Z,2.33
2018-11-14T12:43:00.754Z,1.90
2018-11-14T12:45:28.413Z,2.03
2018-11-14T12:47:56.525Z,1.87
2018-11-14T12:50:24.034Z,2.20
2018-11-14T12:52:51.722Z,1.90
2018-11-14T12:55:19.191Z,2.10
2018-11-14T12:57:46.754Z,2.00
2018-11-14T13:00:15.602Z,1.80
2018-11-14T13:02:43.260Z,1.60
2018-11-14T13:05:11.931Z,1.90
2018-11-14T13:07:39.611Z,1.93
2018-11-14T13:10:08.395Z,1.73
2018-11-14T13:12:35.922Z,1.70
2018-11-14T13:15:03.622Z,2.10
2018-11-14T13:17:31.202Z,1.67
2018-11-14T13:19:59.013Z,1.90
2018-11-14T13:22:26.554Z,1.67
2018-11-14T13:24:54.190Z,2.27
2018-11-14T13:27:21.702Z,1.97
2018-11-14T13:29:49.246Z,1.90
2018-11-14T13:32:16.745Z,2.20
2018-11-14T13:34:44.462Z,1.80
2018-11-14T13:37:12.143Z,2.40
2018-11-14T13:39:39.743Z,2.10
2018-11-14T13:42:07.253Z,2.13
2018-11-14T13:44:34.776Z,2.20
2018-11-14T13:47:02.442Z,2.17
2018-11-14T13:49:30.069Z,1.70
2018-11-14T13:51:57.542Z,1.87
2018-11-14T13:54:25.082Z,1.63
2018-11-14T13:56:52.617Z,1.67
2018-11-14T13:59:20.164Z,2.13
2018-11-14T14:01:47.693Z,1.60
2018-11-14T14:04:15.218Z,1.70
2018-11-14T14:06:42.752Z,1.40
2018-11-14T14:09:11.712Z,1.47
2018-11-14T14:11:39.254Z,1.60
2018-11-14T14:14:13.894Z,1.27
2018-11-14T14:16:42.573Z,1.40
2018-11-14T14:19:10.109Z,1.43
2018-11-14T14:21:37.794Z,1.67
2018-11-14T14:24:05.647Z,1.80
2018-11-14T14:26:33.341Z,1.60
2018-11-14T14:29:00.878Z,1.43
2018-11-14T14:31:28.881Z,1.60
2018-11-14T14:33:56.417Z,1.60
2018-11-14T14:36:23.899Z,2.87
2018-11-14T14:38:51.389Z,2.23
2018-11-14T14:41:19.066Z,1.63
2018-11-14T14:43:46.606Z,1.40
2018-11-14T14:46:14.134Z,1.23
2018-11-14T14:48:41.755Z,1.50
2018-11-14T14:51:09.391Z,1.10
2018-11-14T14:53:36.918Z,1.30
2018-11-14T14:56:04.662Z,0.90
2018-11-14T14:58:32.168Z,1.10
2018-11-14T15:00:59.763Z,0.97
2018-11-14T15:03:27.527Z,1.07
2018-11-14T15:05:54.949Z,1.47
2018-11-14T15:08:22.469Z,1.30
2018-11-14T15:10:50.077Z,1.60
2018-11-14T15:13:17.674Z,1.30
2018-11-14T15:15:45.360Z,1.30
2018-11-14T15:18:12.938Z,1.40
2018-11-14T15:20:40.478Z,1.60
2018-11-14T15:23:08.184Z,1.83
2018-11-14T15:25:35.828Z,1.60
2018-11-14T15:28:03.438Z,1.60
2018-11-14T15:30:31.139Z,1.60
2018-11-14T15:32:58.837Z,1.60
2018-11-14T15:35:26.478Z,1.47
2018-11-14T15:37:54.034Z,1.57
2018-11-14T15:40:22.889Z,1.37
2018-11-14T15:42:50.537Z,1.33
2018-11-14T15:45:20.330Z,1.40
2018-11-14T15:47:47.990Z,1.67
2018-11-14T15:50:19.565Z,2.13
2018-11-14T15:52:47.894Z,1.73
2018-11-14T15:55:16.346Z,2.10
2018-11-14T15:57:43.990Z,1.77
2018-11-14T16:00:29.607Z,1.90
2018-11-14T16:02:57.119Z,1.80
2018-11-14T16:05:25.851Z,1.70
2018-11-14T16:07:54.475Z,1.90
2018-11-14T16:10:22.981Z,1.90
2018-11-14T16:12:50.654Z,1.67
2018-11-14T16:15:19.598Z,1.77
2018-11-14T16:17:47.230Z,1.60
2018-11-14T16:20:19.913Z,1.97
2018-11-14T16:22:47.442Z,2.07
2018-11-14T16:25:16.147Z,1.73
2018-11-14T16:27:44.602Z,1.97
2018-11-14T16:30:16.104Z,1.93
2018-11-14T16:32:44.781Z,1.90
2018-11-14T16:35:12.559Z,2.20
2018-11-14T16:37:40.555Z,2.43
2018-11-14T16:40:09.094Z,2.03
2018-11-14T16:42:36.834Z,2.40
2018-11-14T16:45:04.986Z,1.93
2018-11-14T16:47:32.518Z,2.37
2018-11-14T16:50:00.035Z,3.17
2018-11-14T16:52:27.562Z,4.13
2018-11-14T16:54:55.069Z,3.80
2018-11-14T16:57:22.841Z,3.40
2018-11-14T16:59:50.353Z,3.10
2018-11-14T17:02:17.889Z,2.97
2018-11-14T17:04:45.436Z,2.80
2018-11-14T17:07:12.951Z,2.60
2018-11-14T17:09:40.467Z,3.00
2018-11-14T17:12:08.008Z,2.53
2018-11-14T17:14:35.539Z,3.00
2018-11-14T17:17:03.173Z,2.90
2018-11-14T17:19:30.714Z,2.77
2018-11-14T17:21:58.241Z,3.37
2018-11-14T17:24:25.751Z,3.40
2018-11-14T17:26:53.431Z,4.80
2018-11-14T17:29:20.957Z,4.37
2018-11-14T17:31:48.715Z,4.53
2018-11-14T17:34:16.261Z,3.60
2018-11-14T17:36:43.938Z,3.67
2018-11-14T17:39:12.628Z,3.27
2018-11-14T17:41:40.299Z,3.30
2018-11-14T17:44:07.698Z,3.47
2018-11-14T17:46:35.230Z,4.03
2018-11-14T17:49:02.882Z,3.63
2018-11-14T17:51:30.389Z,4.87
2018-11-14T17:53:58.011Z,4.57
2018-11-14T17:56:25.526Z,4.77
2018-11-14T17:58:53.158Z,4.10
2018-11-14T18:01:20.698Z,3.83
2018-11-14T18:03:48.363Z,4.27
2018-11-14T18:06:15.870Z,4.23
2018-11-14T18:08:43.590Z,3.47
2018-11-14T18:11:11.145Z,4.10
2018-11-14T18:13:38.662Z,3.83
2018-11-14T18:16:06.181Z,3.93
2018-11-14T18:18:33.669Z,5.73
2018-11-14T18:21:01.182Z,4.20
2018-11-14T18:23:28.798Z,3.87
2018-11-14T18:25:56.317Z,4.70
2018-11-14T18:28:23.914Z,4.90
2018-11-14T18:30:51.406Z,5.00
2018-11-14T18:33:18.934Z,5.07
2018-11-14T18:35:46.494Z,4.40
2018-11-14T18:38:14.050Z,4.23
2018-11-14T18:40:41.674Z,4.80
2018-11-14T18:43:09.219Z,4.27
2018-11-14T18:45:36.771Z,4.73
2018-11-14T18:48:04.882Z,5.23
2018-11-14T18:50:32.517Z,4.50
2018-11-14T18:53:00.074Z,5.50
2018-11-14T18:55:29.031Z,5.73
2018-11-14T18:57:57.134Z,5.83
2018-11-14T19:00:28.726Z,5.43
2018-11-14T19:02:56.422Z,5.37
2018-11-14T19:05:24.009Z,5.87
2018-11-14T19:07:51.800Z,7.07
2018-11-14T19:10:20.606Z,6.70
2018-11-14T19:12:48.778Z,5.33
2018-11-14T19:15:21.445Z,4.70
2018-11-14T19:17:48.953Z,5.73
2018-11-14T19:20:22.472Z,5.70
2018-11-14T19:22:50.342Z,5.97
2018-11-14T19:25:19.282Z,6.27
2018-11-14T19:27:47.325Z,7.50
2018-11-14T19:30:17.174Z,8.00
2018-11-14T19:32:45.945Z,6.63
2018-11-14T19:35:13.929Z,6.53
2018-11-14T19:37:42.609Z,6.63
2018-11-14T19:40:12.874Z,6.47
2018-11-14T19:42:40.927Z,8.30
2018-11-14T19:45:09.982Z,6.17
2018-11-14T19:47:37.647Z,6.63
2018-11-14T19:50:07.158Z,6.17
2018-11-14T19:52:34.679Z,6.20
2018-11-14T19:55:02.369Z,6.80
2018-11-14T19:57:29.876Z,8.27
2018-11-14T19:59:57.399Z,7.23
2018-11-14T20:02:24.962Z,7.53
2018-11-14T20:04:52.551Z,7.33
2018-11-14T20:07:20.086Z,7.23
2018-11-14T20:09:47.565Z,7.70
2018-11-14T20:12:15.083Z,7.87
2018-11-14T20:14:42.582Z,8.33
2018-11-14T20:17:10.310Z,8.20
2018-11-14T20:19:37.813Z,7.40
2018-11-14T20:22:05.293Z,7.43
2018-11-14T20:24:32.793Z,8.00
2018-11-14T20:27:00.397Z,8.40
2018-11-14T20:29:27.894Z,8.10
2018-11-14T20:31:55.521Z,7.30
2018-11-14T20:34:23.029Z,7.57
2018-11-14T20:36:50.542Z,7.30
2018-11-14T20:39:18.086Z,7.47
2018-11-14T20:41:45.585Z,11.07
2018-11-14T20:44:13.099Z,8.27
2018-11-14T20:46:40.589Z,7.53
2018-11-14T20:49:08.265Z,7.97
2018-11-14T20:51:35.882Z,7.20
2018-11-14T20:54:03.380Z,8.60
2018-11-14T20:56:30.963Z,8.20
2018-11-14T20:58:58.530Z,7.67
2018-11-14T21:01:26.116Z,8.63
2018-11-14T21:03:53.621Z,7.37
2018-11-14T21:06:21.141Z,6.97
2018-11-14T21:08:48.627Z,7.40
2018-11-14T21:11:16.222Z,7.30
2018-11-14T21:13:43.834Z,8.37
2018-11-14T21:16:11.377Z,6.83
2018-11-14T21:18:38.881Z,7.60
2018-11-14T21:21:06.473Z,6.07
2018-11-14T21:23:34.106Z,7.00
2018-11-14T21:26:01.754Z,5.87
2018-11-14T21:28:29.274Z,6.27
2018-11-14T21:30:56.796Z,7.10
2018-11-14T21:33:24.414Z,5.77
2018-11-14T21:35:51.901Z,5.80
2018-11-14T21:38:19.554Z,6.27
2018-11-14T21:40:47.057Z,6.00
2018-11-14T21:45:48.662Z,6.23
2018-11-14T21:48:17.331Z,6.37
2018-11-14T21:50:45.354Z,6.33
2018-11-14T21:53:13.030Z,5.43
2018-11-14T21:55:40.646Z,5.63
2018-11-14T22:05:12.618Z,7.17
2018-11-14T22:07:40.132Z,7.30
2018-11-14T22:10:11.795Z,6.67
2018-11-14T22:12:39.857Z,9.63
2018-11-14T22:15:07.945Z,9.65
2018-11-14T22:17:35.810Z,7.20
2018-11-14T22:20:03.796Z,7.23
2018-11-14T22:22:31.442Z,6.83
2018-11-14T22:24:59.095Z,5.27
2018-11-14T22:27:26.691Z,6.00
2018-11-14T22:29:54.375Z,5.73
2018-11-14T22:32:21.939Z,6.00
2018-11-14T22:34:49.592Z,5.47
2018-11-14T22:37:17.223Z,5.40
2018-11-14T22:39:44.773Z,5.27
2018-11-14T22:42:12.296Z,5.50
2018-11-14T22:44:39.822Z,4.93
2018-11-14T22:47:07.450Z,5.67
2018-11-14T22:49:35.069Z,5.53
2018-11-14T22:52:02.706Z,7.93
2018-11-14T22:54:30.437Z,5.97
2018-11-14T22:56:57.957Z,5.40
2018-11-14T22:59:25.550Z,8.00
2018-11-14T23:01:53.062Z,8.00
2018-11-14T23:04:20.573Z,6.20
2018-11-14T23:06:48.160Z,5.33
2018-11-14T23:09:15.797Z,5.57
2018-11-14T23:11:43.409Z,5.37
2018-11-14T23:14:11.018Z,4.50
2018-11-14T23:16:38.542Z,4.80
2018-11-14T23:19:06.078Z,6.90
2018-11-14T23:21:33.805Z,5.67
2018-11-14T23:24:01.378Z,5.47
2018-11-14T23:26:29.233Z,4.90
2018-11-14T23:28:56.839Z,4.43
2018-11-14T23:31:24.446Z,4.87
2018-11-14T23:33:51.942Z,6.33
2018-11-14T23:36:19.467Z,5.03
2018-11-14T23:38:47.102Z,5.10
2018-11-14T23:41:14.765Z,5.40
2018-11-14T23:43:42.390Z,4.87
2018-11-14T23:46:10.015Z,5.03
2018-11-14T23:48:37.610Z,5.87
2018-11-14T23:51:05.620Z,5.23
2018-11-14T23:53:33.210Z,6.43
2018-11-14T23:56:00.856Z,5.80
2018-11-14T23:58:28.490Z,6.50
